• Join FlightAware (Why Join?)
  • Login
  • US Flag 
07:41AM EDT


 

Airport Tracker/Info


-or-


 

Live Flight TrackerFlight Track Log ✈ LXJ524 ✈ 07-Jun-2014 ✈ KHPN - KAPA

Flight Track Log - Related Links

Times and Time Zones

All times are in EDT time to prevent confusion due to time zone crossing. See the LXJ524 flight status page for this flight to view local times or setup timezone preferences in your user account.

Time Position Orientation Groundspeed Altitude Reporting Facility
EDT Latitude Longitude Course Direction KTS MPH feet Rate Location/Type
05:36PM 41.1000 -73.7667 270° West 195 224 3,000  Level New York TRACON
05:37PM 41.1000 -73.8500 270° West 243 280 3,900 1,860 Climbing New York TRACON
05:38PM 41.0667 -73.9500 246° West 262 302 6,800 3,240 Climbing New York TRACON
05:39PM 41.0500 -74.0500 258° West 281 323 10,800 2,940 Climbing New York TRACON
05:40PM 41.0167 -74.1500 246° West 348 400 12,700 2,160 Climbing New York TRACON
05:41PM 40.9500 -74.2833 237° Southwest 394 453 15,000 1,320 Climbing New York TRACON
05:42PM 40.9053 -74.4197 247° West 401 461 15,600 720 Climbing New York Center
05:43PM 40.9069 -74.5656 271° West 356 410 16,600 660 Climbing New York Center
05:44PM 40.9094 -74.6808 272° West 374 430 17,000 180 Climbing New York Center
05:45PM 40.9128 -74.8267 272° West 415 478 17,000 420 Level New York Center
05:46PM 40.9014 -74.9714 264° West 409 471 17,900 1,740 Climbing New York Center
05:47PM 40.8803 -75.0964 257° West 398 458 20,500 2,400 Climbing New York Center
05:48PM 40.8519 -75.2456 256° West 406 467 22,700 2,040 Climbing New York Center
05:49PM 40.8231 -75.4000 256° West 424 488 24,800 2,040 Climbing New York Center
05:50PM 40.7914 -75.5622 256° West 443 510 26,800 1,980 Climbing New York Center
05:51PM 40.7642 -75.7192 257° West 448 516 28,800 1,980 Climbing New York Center
05:52PM 40.7322 -75.8811 255° West 453 521 30,800 1,920 Climbing New York Center
05:53PM 40.7003 -76.0431 255° West 458 527 32,700 1,920 Climbing New York Center
05:54PM 40.6742 -76.2053 258° West 463 533 34,700 1,920 Climbing New York Center
05:55PM 40.6831 -76.3703 274° West 456 525 36,600 1,860 Climbing New York Center
05:56PM 40.7050 -76.5200 281° West 440 506 38,500 1,680 Climbing New York Center
05:57PM 40.7267 -76.6725 281° West 429 494 40,100 1,260 Climbing New York Center
05:58PM 40.7486 -76.8167 281° West 417 480 41,100 1,080 Climbing New York Center
05:59PM 40.7703 -76.9639 281° West 412 474 42,300 900 Climbing New York Center
06:00PM 40.7919 -77.1056 281° West 407 468 43,000 300 Climbing New York Center
06:01PM 40.8128 -77.2558 280° West 412 474 43,000  Level New York Center
06:02PM 40.8369 -77.4228 281° West 417 480 43,000  Level New York Center
06:03PM 40.8517 -77.5142 282° West 429 494 43,000  Level Cleveland Center
06:04PM 40.8725 -77.6725 280° West 440 506 43,000  Level Cleveland Center
06:05PM 40.8986 -77.8614 280° West 439 505 43,000  Level Cleveland Center
06:06PM 40.9197 -78.0194 280° West 438 504 43,000  Level Cleveland Center
06:07PM 40.9394 -78.1767 279° West 437 503 43,100 480 Climbing Cleveland Center
06:08PM 40.9589 -78.3347 279° West 431 496 44,000 840 Climbing Cleveland Center
06:09PM 40.9772 -78.4858 279° West 420 483 44,900 480 Climbing Cleveland Center
06:10PM 40.9969 -78.6394 280° West 421 484 45,000  Climbing Cleveland Center
06:11PM 41.0131 -78.7886 278° West 419 482 45,000  Level Cleveland Center
06:12PM 41.0319 -78.9444 279° West 426 490 45,000  Level Cleveland Center
06:13PM 41.0525 -79.1306 278° West 427 491 45,000  Level Cleveland Center
06:14PM 41.0700 -79.2869 278° West 428 493 45,000  Level Cleveland Center
06:15PM 41.0883 -79.4381 279° West 422 486 45,000  Level Cleveland Center
06:16PM 41.1050 -79.5817 279° West 402 463 45,000  Level Cleveland Center
06:17PM 41.1197 -79.7225 278° West 391 450 45,000  Level Cleveland Center
06:18PM 41.1356 -79.8642 278° West 383 441 45,000  Level Cleveland Center
06:19PM 41.1528 -80.0203 278° West 374 430 45,000  Level Cleveland Center
06:21PM 41.1667 -80.1567 278° West 374 430 45,000  Level Cleveland Center
06:22PM 41.1811 -80.2944 278° West 377 434 45,000  Level Cleveland Center
06:23PM 41.1964 -80.4403 278° West 380 437 45,000  Level Cleveland Center
06:24PM 41.2103 -80.5833 277° West 386 444 45,000  Level Cleveland Center
06:25PM 41.2247 -80.7269 278° West 388 447 45,000  Level Cleveland Center
06:26PM 41.2394 -80.8717 278° West 390 449 45,000  Level Cleveland Center
06:27PM 41.2531 -81.0175 277° West 392 451 45,000  Level Cleveland Center
06:28PM 41.2692 -81.1878 277° West 392 451 45,000  Level Cleveland Center
06:29PM 41.2836 -81.3342 278° West 394 453 45,000  Level Cleveland Center
06:30PM 41.2961 -81.4653 277° West 394 453 45,000  Level Cleveland Center
06:31PM 41.3092 -81.6125 277° West 399 459 45,000  Level Cleveland Center
06:32PM 41.3231 -81.7592 277° West 400 460 45,000  Level Cleveland Center
06:33PM 41.3383 -81.9364 277° West 403 464 45,000  Level Cleveland Center
06:34PM 41.3508 -82.0836 277° West 403 464 45,000  Level Cleveland Center
06:35PM 41.3631 -82.2394 276° West 403 464 45,000  Level Cleveland Center
06:36PM 41.3719 -82.3894 275° West 403 464 45,000  Level Cleveland Center
06:37PM 41.3806 -82.5419 274° West 406 467 45,000  Level Cleveland Center
06:38PM 41.3892 -82.6931 274° West 407 468 45,000  Level Cleveland Center
06:39PM 41.3975 -82.8439 274° West 407 468 45,000  Level Cleveland Center
06:40PM 41.4064 -82.9983 274° West 411 473 45,000  Level Cleveland Center
06:41PM 41.4133 -83.1522 273° West 411 473 45,000  Level Cleveland Center
06:42PM 41.4214 -83.3058 274° West 412 474 45,000  Level Cleveland Center
06:43PM 41.4275 -83.4583 273° West 412 474 45,000  Level Cleveland Center
06:44PM 41.4358 -83.6117 274° West 412 474 45,000  Level Cleveland Center
06:45PM 41.4425 -83.7658 273° West 413 475 45,000  Level Cleveland Center
06:46PM 41.4514 -83.9511 274° West 415 478 45,000  Level Cleveland Center
06:47PM 41.4583 -84.1050 273° West 415 478 45,000  Level Cleveland Center
06:48PM 41.4650 -84.2503 274° West 416 479 45,000  Level Cleveland Center
06:49PM 41.4711 -84.4053 273° West 417 480 45,000  Level Cleveland Center
06:50PM 41.4767 -84.5608 273° West 419 482 45,000  Level Cleveland Center
06:51PM 41.4833 -84.7156 273° West 419 482 45,000  Level Cleveland Center
06:52PM 41.4883 -84.8719 272° West 419 482 45,000  Level Cleveland Center
06:53PM 41.4950 -85.0611 273° West 421 484 45,000  Level Cleveland Center
06:54PM 41.5000 -85.2200 272° West 422 486 45,000  Level Cleveland Center
06:55PM 41.5056 -85.3800 273° West 424 488 45,000  Level Cleveland Center
06:56PM 41.5108 -85.5442 273° West 427 491 45,000  Level Cleveland Center
06:57PM 41.5153 -85.7044 272° West 427 491 45,000  Level Cleveland Center
06:58PM 41.5206 -85.8603 273° West 425 489 45,000  Level Cleveland Center
06:59PM 41.5250 -86.0186 272° West 424 488 45,000  Level Cleveland Center
07:00PM 41.5283 -86.1761 272° West 424 488 45,000  Level Cleveland Center
07:02PM 41.5314 -86.3336 272° West 424 488 45,000  Level Cleveland Center
07:03PM 41.5342 -86.5228 271° West 428 493 45,000  Level Chicago Center
07:04PM 41.5356 -86.6783 271° West 421 484 45,000  Level Chicago Center
07:05PM 41.5372 -86.8200 271° West 420 483 45,000  Level Chicago Center
07:06PM 41.5394 -87.0094 271° West 424 488 45,000  Level Chicago Center
07:07PM 41.5406 -87.1658 271° West 422 486 45,000  Level Chicago Center
07:08PM 41.5417 -87.3250 271° West 427 491 45,000  Level Chicago Center
07:09PM 41.5439 -87.4808 271° West 424 488 45,000  Level Chicago Center
07:10PM 41.5450 -87.6347 271° West 416 479 45,000  Level Chicago Center
07:11PM 41.5456 -87.7928 270° West 422 486 45,000  Level Chicago Center
07:12PM 41.5467 -87.9811 271° West 426 490 45,000  Level Chicago Center
07:13PM 41.5478 -88.1367 271° West 429 494 45,000  Level Chicago Center
07:14PM 41.5483 -88.2944 270° West 430 495 45,000  Level Chicago Center
07:15PM 41.5481 -88.4517 270° West 430 495 45,000  Level Chicago Center
07:16PM 41.5481 -88.6075 270° West 428 493 45,000  Level Chicago Center
07:17PM 41.5492 -88.7628 271° West 422 486 45,000  Level Chicago Center
07:18PM 41.5483 -88.9503 270° West 422 486 45,000  Level Chicago Center
07:19PM 41.5486 -89.1072 270° West 423 487 45,000  Level Chicago Center
07:20PM 41.5486 -89.2636 270° West 423 487 45,000  Level Chicago Center
07:21PM 41.5486 -89.4200 270° West 422 486 45,000  Level Chicago Center
07:22PM 41.5489 -89.5764 270° West 422 486 45,000  Level Chicago Center
07:23PM 41.5478 -89.7353 270° West 424 488 45,000  Level Chicago Center
07:24PM 41.5467 -89.8931 270° West 424 488 45,000  Level Chicago Center
07:25PM 41.5442 -90.0511 269° West 425 489 45,000  Level Chicago Center
07:26PM 41.5428 -90.2411 270° West 426 490 45,000  Level Chicago Center
07:27PM 41.5414 -90.3992 269° West 426 490 45,000  Level Chicago Center
07:28PM 41.5389 -90.5561 269° West 426 490 45,000  Level Chicago Center
07:29PM 41.5361 -90.7231 269° West 426 490 45,000  Level Chicago Center
07:30PM 41.5333 -90.8786 269° West 426 490 45,000  Level Chicago Center
07:31PM 41.5311 -91.0333 269° West 424 488 45,000  Level Chicago Center
07:32PM 41.5278 -91.1914 268° West 425 489 45,000  Level Chicago Center
07:33PM 41.5247 -91.3489 269° West 425 489 45,000  Level Chicago Center
07:34PM 41.5219 -91.4981 269° West 409 471 45,000  Level Chicago Center
07:35PM 41.5175 -91.6733 268° West 401 461 45,000  Level Chicago Center
07:36PM 41.5133 -91.8222 268° West 403 464 45,000  Level Chicago Center
07:38PM 41.5078 -91.9703 267° West 403 464 45,000  Level Chicago Center
07:39PM 41.5031 -92.1183 268° West 403 464 45,000  Level Chicago Center
07:40PM 41.4975 -92.2658 267° West 402 463 45,000  Level Chicago Center
07:41PM 41.4922 -92.4081 267° West 405 466 45,000  Level Chicago Center
07:42PM 41.4853 -92.5844 267° West 405 466 45,000  Level Chicago Center
07:43PM 41.4792 -92.7336 267° West 405 466 45,000  Level Chicago Center
07:44PM 41.4731 -92.8839 267° West 404 465 45,000  Level Minneapolis Center
07:45PM 41.4650 -93.0628 267° West 404 465 45,000  Level Minneapolis Center
07:46PM 41.4581 -93.2106 266° West 404 465 45,000  Level Minneapolis Center
07:47PM 41.4517 -93.3583 267° West 404 465 45,000  Level Minneapolis Center
07:48PM 41.4444 -93.5064 266° West 404 465 45,000  Level Minneapolis Center
07:49PM 41.4383 -93.6519 267° West 404 465 45,000  Level Minneapolis Center
07:50PM 41.4386 -93.8008 270° West 404 465 45,000  Level Minneapolis Center
07:51PM 41.4397 -93.9803 271° West 404 465 45,000  Level Minneapolis Center
07:52PM 41.4403 -94.1317 270° West 407 468 45,000  Level Minneapolis Center
07:53PM 41.4406 -94.2697 270° West 408 470 45,000  Level Minneapolis Center
07:54PM 41.4397 -94.4236 270° West 413 475 45,000  Level Minneapolis Center
07:55PM 41.4400 -94.5764 270° West 414 476 45,000  Level Minneapolis Center
07:56PM 41.4408 -94.7606 270° West 414 476 45,000  Level Minneapolis Center
07:57PM 41.4403 -94.9147 270° West 415 478 45,000  Level Minneapolis Center
07:58PM 41.4397 -95.0664 270° West 414 476 45,000  Level Minneapolis Center
07:59PM 41.4389 -95.2194 270° West 414 476 45,000  Level Minneapolis Center
08:00PM 41.4369 -95.3731 269° West 414 476 45,000  Level Minneapolis Center
08:01PM 41.4356 -95.5281 269° West 418 481 45,000  Level Minneapolis Center
08:02PM 41.4333 -95.6828 269° West 419 482 45,000  Level Minneapolis Center
08:03PM 41.4319 -95.8711 269° West 422 486 45,000  Level Minneapolis Center
08:04PM 41.4222 -96.0269 265° West 422 486 45,000  Level Minneapolis Center
08:05PM 41.4011 -96.1825 260° West 423 487 45,000  Level Minneapolis Center
08:06PM 41.3836 -96.3381 262° West 423 487 45,000  Level Minneapolis Center
08:07PM 41.3669 -96.4831 261° West 429 494 45,000  Level Minneapolis Center
08:08PM 41.3475 -96.6392 261° West 430 495 45,000  Level Minneapolis Center
08:09PM 41.3267 -96.7975 260° West 434 499 45,000  Level Minneapolis Center
08:10PM 41.3019 -96.9864 260° West 434 499 45,000  Level Minneapolis Center
08:11PM 41.2836 -97.1439 261° West 434 499 45,000  Level Minneapolis Center
08:12PM 41.2631 -97.3006 260° West 433 498 45,000  Level Minneapolis Center
08:13PM 41.2444 -97.4403 260° West 433 498 45,000  Level Minneapolis Center
08:14PM 41.2197 -97.6283 260° West 432 497 45,000  Level Minneapolis Center
08:15PM 41.1989 -97.7844 260° West 432 497 45,000  Level Minneapolis Center
08:16PM 41.1781 -97.9414 260° West 432 497 45,000  Level Minneapolis Center
08:18PM 41.1567 -98.0975 260° West 431 496 45,000  Level Minneapolis Center
08:19PM 41.1358 -98.2533 260° West 431 496 45,000  Level Minneapolis Center
08:20PM 41.1139 -98.4083 259° West 430 495 45,000  Level Minneapolis Center
08:21PM 41.0900 -98.5778 259° West 429 494 45,000  Level Minneapolis Center
08:22PM 41.0681 -98.7331 259° West 429 494 45,000  Level Minneapolis Center
08:23PM 41.0442 -98.8897 259° West 430 495 45,000  Level Minneapolis Center
08:24PM 41.0222 -99.0444 259° West 430 495 45,000  Level Minneapolis Center
08:25PM 41.0003 -99.1978 259° West 429 494 45,000  Level Minneapolis Center
08:26PM 40.9778 -99.3522 259° West 429 494 45,000  Level Minneapolis Center
08:27PM 40.9550 -99.5069 259° West 429 494 45,000  Level Minneapolis Center
08:28PM 40.9322 -99.6592 259° West 428 493 45,000  Level Minneapolis Center
08:29PM 40.9039 -99.8425 259° West 425 489 45,000  Level Minneapolis Center
08:30PM 40.8803 -99.9953 258° West 425 489 45,000  Level Minneapolis Center
08:31PM 40.8569 -100.1475 259° West 425 489 45,000  Level Minneapolis Center
08:32PM 40.8333 -100.2994 258° West 425 489 45,000  Level Minneapolis Center
08:33PM 40.8089 -100.4519 258° West 425 489 45,000  Level Minneapolis Center
08:34PM 40.7844 -100.6036 258° West 424 488 45,000  Level Minneapolis Center
08:35PM 40.7544 -100.7858 258° West 429 494 45,000  Level Denver Center
08:36PM 40.7267 -100.9475 257° West 428 493 45,000  Level Denver Center
08:37PM 40.7033 -101.0933 258° West 427 491 45,000  Level Denver Center
08:38PM 40.6753 -101.2636 258° West 427 491 45,000  Level Denver Center
08:39PM 40.6503 -101.4100 257° West 427 491 45,000  Level Denver Center
08:40PM 40.6264 -101.5558 258° West 427 491 45,000  Level Denver Center
08:41PM 40.5969 -101.7267 257° West 427 491 45,000 -300 Level Denver Center
08:42PM 40.5714 -101.8747 257° West 430 495 44,400 -1,080 Descending Denver Center
08:43PM 40.5433 -102.0383 257° West 417 480 42,800 -1,620 Descending Denver Center
08:44PM 40.5189 -102.1775 257° West 411 473 41,200 -1,560 Descending Denver Center
08:45PM 40.4900 -102.3378 257° West 407 468 39,700 -1,140 Descending Denver Center
08:46PM 40.4656 -102.4711 256° West 398 458 39,000 -720 Descending Denver Center
08:47PM 40.4394 -102.6086 256° West 400 460 38,300 -1,020 Descending Denver Center
08:48PM 40.4078 -102.7775 256° West 414 476 37,000 -1,800 Descending Denver Center
08:49PM 40.3803 -102.9247 256° West 414 476 34,700 -2,100 Descending Denver Center
08:50PM 40.3522 -103.0708 256° West 415 478 32,700 -1,980 Descending Denver Center
08:51PM 40.3269 -103.2144 257° West 410 472 30,700 -1,920 Descending Denver Center
08:52PM 40.2986 -103.3511 255° West 395 455 28,800 -1,860 Descending Denver Center
08:54PM 40.2728 -103.4878 256° West 391 450 26,900 -1,860 Descending Denver Center
08:55PM 40.2456 -103.6222 255° West 387 445 25,000 -2,100 Descending Denver Center
08:56PM 40.2106 -103.7772 254° West 374 430 22,700 -1,980 Descending Denver Center
08:57PM 40.1581 -103.8936 239° Southwest 398 458 21,000 -1,380 Descending Denver Center
08:58PM 40.0964 -104.0339 240° Southwest 404 465 19,900 -1,080 Descending Denver Center
08:59PM 40.0411 -104.1583 240° Southwest 397 457 18,900 -1,080 Descending Denver Center
09:00PM 39.9806 -104.2914 239° Southwest 396 456 17,700 -1,020 Descending Denver Center
09:01PM 39.9256 -104.4128 239° Southwest 390 449 16,800 -1,260 Descending Denver Center
09:02PM 39.8703 -104.5339 239° Southwest 388 447 15,200 -1,620 Descending Denver Center
09:03PM 39.8153 -104.6536 239° Southwest 384 442 13,500 -1,740 Descending Denver Center
09:04PM 39.7647 -104.7686 240° Southwest 360 414 11,700 -1,620 Descending Denver Center
09:05PM 39.7156 -104.8575 234° Southwest 286 329 10,300 -1,320 Descending Denver Center
09:06PM 39.6567 -104.8908 204° Southwest 241 277 9,000 -1,140 Descending Denver Center
09:07PM 39.5961 -104.9225 202° Southwest 237 273 8,000 -540 Descending Denver Center
09:08PM 39.5342 -104.9550 202° Southwest 240 276 8,000  Level Denver Center
09:09PM 39.4658 -104.9686 189° South 230 265 8,000  Level Denver Center
09:10PM 39.4075 -104.9447 162° South 239 275 8,000  Level Denver Center
09:11PM 39.3858 -104.8661 110° East 243 280 8,000  Level Denver Center
09:12PM 39.4419 -104.8439 17° North 213 245 8,000 -420 Level Denver Center
09:13PM 39.4856 -104.8475 356° North 154 177 7,200 -780 Descending Denver Center
09:14PM 39.5206 -104.8486 359° North 130 150 6,500 -660 Descending Denver Center
09:15PM 39.5539 -104.8508 357° North 126 145 5,900 -600 Descending Denver Center